Time;durP1;ratioP1;P1;durP2;ratioP2;P2;SDS_P1;SDS_P2;PMS_P1;PMS_P2;Temp;Humidity;BMP_temperature;BMP_pressure;BME280_temperature;BME280_humidity;BME280_pressure;Samples;Min_cycle;Max_cycle;Signal;HPM_P1;HPM_P2
2023/05/27 00:01:12;;;;;;;15.30;5.87;;;16.50;13.80;;;;;;5066476;28;20612;-65
2023/05/27 00:03:39;;;;;;;9.80;5.20;;;16.40;13.90;;;;;;5063635;28;20523;-65
2023/05/27 00:06:07;;;;;;;10.10;5.13;;;16.40;14.00;;;;;;5060676;28;20508;-65
2023/05/27 00:08:34;;;;;;;11.57;5.10;;;16.30;14.20;;;;;;5062084;28;20460;-67
2023/05/27 00:11:01;;;;;;;10.30;5.23;;;16.20;14.30;;;;;;5067118;28;20468;-67
2023/05/27 00:13:27;;;;;;;11.47;5.93;;;16.20;14.30;;;;;;5071049;28;20989;-66
2023/05/27 00:15:54;;;;;;;12.10;5.30;;;16.10;14.30;;;;;;5064290;28;20481;-67
2023/05/27 00:18:21;;;;;;;11.77;5.17;;;16.10;14.40;;;;;;5067358;28;20465;-67
2023/05/27 00:20:48;;;;;;;14.13;5.57;;;16.00;14.50;;;;;;5067323;28;20453;-67
2023/05/27 00:23:16;;;;;;;13.83;5.47;;;15.90;14.60;;;;;;5066669;28;20494;-67
2023/05/27 00:25:42;;;;;;;13.30;5.90;;;15.90;14.80;;;;;;5067883;28;20643;-66
2023/05/27 00:28:09;;;;;;;11.03;6.37;;;15.90;14.80;;;;;;5067011;28;20488;-66
2023/05/27 00:30:36;;;;;;;17.43;6.40;;;15.80;14.80;;;;;;5068666;28;20457;-66
2023/05/27 00:33:03;;;;;;;13.80;5.70;;;15.80;14.70;;;;;;5061292;28;20484;-66
2023/05/27 00:35:30;;;;;;;15.97;6.67;;;15.70;14.70;;;;;;5066549;28;20496;-67
2023/05/27 00:37:56;;;;;;;13.67;5.70;;;15.70;14.90;;;;;;5068603;28;20471;-66
2023/05/27 00:40:27;;;;;;;16.03;5.90;;;15.60;15.00;;;;;;5064836;28;20473;-66
2023/05/27 00:42:53;;;;;;;14.40;5.90;;;15.60;15.10;;;;;;5064374;28;20504;-66
2023/05/27 00:45:20;;;;;;;12.60;5.57;;;15.50;15.10;;;;;;5070168;28;20467;-66
2023/05/27 00:47:47;;;;;;;12.77;6.10;;;15.50;15.20;;;;;;5064989;28;20800;-65
2023/05/27 00:50:14;;;;;;;13.00;5.83;;;15.50;15.30;;;;;;5064006;28;20477;-65
2023/05/27 00:52:42;;;;;;;12.73;5.87;;;15.40;15.30;;;;;;5062363;28;20907;-65
2023/05/27 00:55:09;;;;;;;14.17;5.20;;;15.40;15.40;;;;;;5062920;28;20467;-65
2023/05/27 00:57:38;;;;;;;12.70;5.90;;;15.30;15.50;;;;;;5067042;28;20468;-65
2023/05/27 01:00:08;;;;;;;11.20;5.30;;;15.30;15.60;;;;;;5061851;28;20464;-65
2023/05/27 01:02:34;;;;;;;16.60;7.67;;;15.30;15.70;;;;;;5062619;28;20484;-66
2023/05/27 01:05:01;;;;;;;12.30;5.70;;;15.20;15.80;;;;;;5067034;28;20457;-65
2023/05/27 01:07:33;;;;;;;15.63;6.07;;;15.10;15.80;;;;;;5064773;28;20464;-65
2023/05/27 01:10:10;;;;;;;12.20;5.17;;;15.20;15.80;;;;;;5062322;28;20462;-65
2023/05/27 01:12:44;;;;;;;11.00;5.40;;;15.10;16.00;;;;;;5061920;28;20496;-65
2023/05/27 01:15:12;;;;;;;17.40;6.13;;;15.00;16.00;;;;;;5062362;28;20460;-65
2023/05/27 01:17:42;;;;;;;18.50;6.37;;;15.00;16.10;;;;;;5066782;28;20481;-65
2023/05/27 01:20:11;;;;;;;14.57;5.90;;;14.90;16.10;;;;;;5065045;28;20459;-65
2023/05/27 01:22:41;;;;;;;15.30;5.20;;;14.90;16.20;;;;;;5064607;28;20489;-65
2023/05/27 01:25:08;;;;;;;12.70;4.90;;;14.90;16.20;;;;;;5060591;28;20492;-65
2023/05/27 01:27:35;;;;;;;10.07;4.63;;;14.80;16.20;;;;;;5059524;28;20755;-65
2023/05/27 01:30:02;;;;;;;10.33;5.50;;;14.80;16.30;;;;;;5060587;28;20465;-65
2023/05/27 01:32:34;;;;;;;14.17;5.60;;;14.70;16.30;;;;;;5059226;28;20506;-65
2023/05/27 01:35:08;;;;;;;15.53;6.40;;;14.70;16.30;;;;;;5066432;28;20461;-66
2023/05/27 01:37:41;;;;;;;11.80;5.30;;;14.70;16.50;;;;;;5064832;28;20489;-65
2023/05/27 01:40:12;;;;;;;14.40;6.17;;;14.70;16.50;;;;;;5058258;28;20460;-66
2023/05/27 01:42:40;;;;;;;11.97;5.70;;;14.60;16.50;;;;;;5061680;28;20527;-65
2023/05/27 01:45:09;;;;;;;11.23;5.27;;;14.60;16.50;;;;;;5065617;28;20987;-65
2023/05/27 01:47:36;;;;;;;11.87;6.57;;;14.60;16.60;;;;;;5064288;28;20457;-65
2023/05/27 01:50:03;;;;;;;11.33;5.83;;;14.50;16.70;;;;;;5058564;28;20465;-65
2023/05/27 01:52:30;;;;;;;16.27;6.83;;;14.50;16.80;;;;;;5065097;28;20477;-65
2023/05/27 01:54:58;;;;;;;12.20;5.53;;;14.50;16.80;;;;;;5064563;28;20460;-65
2023/05/27 01:57:26;;;;;;;9.60;5.27;;;14.40;16.90;;;;;;5064614;28;20480;-66
2023/05/27 01:59:53;;;;;;;14.93;6.97;;;14.40;16.90;;;;;;5063748;28;20472;-66
2023/05/27 02:02:20;;;;;;;13.27;5.33;;;14.40;16.90;;;;;;5061299;28;20473;-66
2023/05/27 02:04:46;;;;;;;12.67;6.20;;;14.30;17.00;;;;;;5065594;28;22389;-65
2023/05/27 02:07:13;;;;;;;11.23;5.13;;;14.30;17.00;;;;;;5064853;28;20464;-67
2023/05/27 02:09:40;;;;;;;17.23;5.80;;;14.30;17.10;;;;;;5066712;28;20469;-67
2023/05/27 02:12:08;;;;;;;15.57;6.20;;;14.30;17.20;;;;;;5063739;28;20484;-65
2023/05/27 02:14:38;;;;;;;15.37;6.17;;;14.20;17.20;;;;;;5063759;28;20464;-67
2023/05/27 02:17:05;;;;;;;10.13;5.13;;;14.20;17.30;;;;;;5059959;28;20934;-65
2023/05/27 02:19:32;;;;;;;15.60;6.03;;;14.20;17.30;;;;;;5062736;28;20461;-65
2023/05/27 02:21:58;;;;;;;12.17;5.90;;;14.10;17.40;;;;;;5061090;28;20477;-65
2023/05/27 02:24:25;;;;;;;13.60;5.53;;;14.10;17.50;;;;;;5058771;28;20468;-65
2023/05/27 02:26:52;;;;;;;12.53;6.33;;;14.00;17.50;;;;;;5063553;28;20813;-65
2023/05/27 02:29:20;;;;;;;13.63;6.10;;;14.00;17.60;;;;;;5062331;28;20474;-65
2023/05/27 02:31:46;;;;;;;11.73;5.70;;;14.00;17.60;;;;;;5063695;28;20496;-65
2023/05/27 02:34:13;;;;;;;11.10;6.03;;;14.00;17.60;;;;;;5064127;28;20464;-65
2023/05/27 02:36:40;;;;;;;13.03;5.57;;;13.90;17.70;;;;;;5066085;28;20485;-65
2023/05/27 02:39:08;;;;;;;13.40;6.40;;;13.90;17.80;;;;;;5064748;28;20894;-65
2023/05/27 02:41:35;;;;;;;12.27;6.13;;;13.90;17.90;;;;;;5059263;28;20464;-65
2023/05/27 02:44:02;;;;;;;10.63;5.87;;;13.80;17.80;;;;;;5065054;28;20469;-65
2023/05/27 02:46:30;;;;;;;13.03;5.43;;;13.90;18.00;;;;;;5063517;28;20461;-65
2023/05/27 02:48:56;;;;;;;11.97;4.90;;;13.80;17.90;;;;;;5065515;28;20457;-65
2023/05/27 02:51:23;;;;;;;17.17;6.93;;;13.80;17.90;;;;;;5061763;28;20468;-65
2023/05/27 02:53:50;;;;;;;13.30;5.63;;;13.80;18.00;;;;;;5058609;28;21006;-65
2023/05/27 02:56:18;;;;;;;12.60;5.50;;;13.70;18.10;;;;;;5065533;28;20488;-65
2023/05/27 02:58:45;;;;;;;10.87;5.03;;;13.70;18.10;;;;;;5062646;28;20961;-65
2023/05/27 03:01:12;;;;;;;13.47;5.27;;;13.70;18.10;;;;;;5061625;28;20477;-66
2023/05/27 03:03:40;;;;;;;16.03;5.30;;;13.70;18.00;;;;;;5063539;28;20485;-67
2023/05/27 03:06:07;;;;;;;12.47;6.60;;;13.70;18.10;;;;;;5064993;28;20560;-66
2023/05/27 03:08:33;;;;;;;14.00;5.70;;;13.60;18.00;;;;;;5059622;28;20473;-66
2023/05/27 03:11:00;;;;;;;11.83;4.83;;;13.60;18.10;;;;;;5059992;28;20468;-66
2023/05/27 03:13:27;;;;;;;11.10;5.33;;;13.60;18.20;;;;;;5059985;28;20490;-66
2023/05/27 03:15:54;;;;;;;12.93;5.17;;;13.60;18.10;;;;;;5067170;28;20465;-66
2023/05/27 03:18:20;;;;;;;12.80;6.20;;;13.60;18.30;;;;;;5068626;28;20476;-66
2023/05/27 03:20:50;;;;;;;15.47;6.70;;;13.60;18.20;;;;;;5067166;28;20526;-65
2023/05/27 03:23:16;;;;;;;13.43;5.40;;;13.50;18.30;;;;;;5067465;28;20484;-65
2023/05/27 03:25:43;;;;;;;10.90;5.57;;;13.50;18.30;;;;;;5063916;28;20465;-65
2023/05/27 03:28:10;;;;;;;12.80;5.40;;;13.50;18.30;;;;;;5062777;28;20468;-65
2023/05/27 03:30:38;;;;;;;12.30;5.60;;;13.40;18.30;;;;;;5063792;28;20848;-66
2023/05/27 03:33:04;;;;;;;19.60;5.93;;;13.40;18.30;;;;;;5068264;28;20477;-66
2023/05/27 03:35:31;;;;;;;13.00;5.10;;;13.40;18.40;;;;;;5065960;28;20477;-66
2023/05/27 03:37:59;;;;;;;12.47;5.43;;;13.40;18.40;;;;;;5066252;28;20933;-66
2023/05/27 03:40:26;;;;;;;11.03;5.17;;;13.40;18.60;;;;;;5067639;28;20465;-66
2023/05/27 03:42:54;;;;;;;15.00;6.50;;;13.40;18.50;;;;;;5067310;28;20493;-66
2023/05/27 03:45:21;;;;;;;9.93;4.80;;;13.40;18.50;;;;;;5063122;28;20471;-66
2023/05/27 03:47:48;;;;;;;15.33;5.50;;;13.30;18.60;;;;;;5067793;28;20953;-66
2023/05/27 03:50:14;;;;;;;12.33;5.23;;;13.40;18.60;;;;;;5063011;28;20470;-66
2023/05/27 03:52:41;;;;;;;12.57;5.63;;;13.40;18.50;;;;;;5064997;28;20525;-66
2023/05/27 03:55:10;;;;;;;12.53;5.97;;;13.40;18.50;;;;;;5069387;28;20479;-66
2023/05/27 03:57:37;;;;;;;11.37;5.47;;;13.40;18.50;;;;;;5067928;28;21069;-66
2023/05/27 04:00:07;;;;;;;13.67;5.00;;;13.40;18.50;;;;;;5068182;28;20472;-67
2023/05/27 04:02:34;;;;;;;13.63;6.33;;;13.40;18.60;;;;;;5061404;28;21048;-67
2023/05/27 04:05:01;;;;;;;13.17;5.40;;;13.40;18.50;;;;;;5066847;28;20501;-66
2023/05/27 04:07:28;;;;;;;13.17;5.77;;;13.40;18.50;;;;;;5071690;28;20952;-66
2023/05/27 04:09:55;;;;;;;12.07;5.00;;;13.50;18.50;;;;;;5063165;28;20465;-66
2023/05/27 04:12:24;;;;;;;12.80;5.70;;;13.50;18.50;;;;;;5060397;28;23137;-66
2023/05/27 04:14:50;;;;;;;12.23;5.10;;;13.50;18.40;;;;;;5063353;28;20471;-67
2023/05/27 04:17:18;;;;;;;15.17;5.70;;;13.50;18.30;;;;;;5061046;28;20473;-67
2023/05/27 04:19:48;;;;;;;12.80;5.50;;;13.60;18.20;;;;;;5066897;28;20489;-66
2023/05/27 04:22:15;;;;;;;13.90;5.10;;;13.60;18.20;;;;;;5064708;28;20543;-66
2023/05/27 04:24:43;;;;;;;14.97;5.40;;;13.70;18.10;;;;;;5061241;28;20985;-67
2023/05/27 04:27:09;;;;;;;13.10;4.57;;;13.90;17.90;;;;;;5064201;28;20457;-66
2023/05/27 04:29:38;;;;;;;13.57;4.73;;;14.50;17.20;;;;;;5066547;28;20461;-67
2023/05/27 04:32:05;;;;;;;14.27;4.57;;;15.20;15.90;;;;;;5061950;28;20841;-66
2023/05/27 04:34:32;;;;;;;16.87;4.80;;;15.90;14.60;;;;;;5059591;28;20460;-66
2023/05/27 04:37:00;;;;;;;9.70;4.50;;;16.40;13.30;;;;;;5067531;28;20488;-66
2023/05/27 04:39:27;;;;;;;10.20;4.77;;;16.60;12.50;;;;;;5066486;28;20461;-66
2023/05/27 04:41:56;;;;;;;12.23;3.90;;;16.60;12.30;;;;;;5057934;28;20488;-67
2023/05/27 04:44:23;;;;;;;10.97;4.43;;;16.50;12.30;;;;;;5064750;28;20544;-67
2023/05/27 04:46:52;;;;;;;14.07;5.07;;;16.20;12.60;;;;;;5066542;28;20461;-67
2023/05/27 04:49:19;;;;;;;10.93;4.10;;;16.20;12.90;;;;;;5064992;28;20519;-67
2023/05/27 04:51:47;;;;;;;8.80;4.30;;;17.10;12.30;;;;;;5064160;28;20525;-65
2023/05/27 04:54:13;;;;;;;9.37;3.90;;;18.30;10.50;;;;;;5059513;28;20458;-66
2023/05/27 04:56:40;;;;;;;9.30;3.93;;;19.50;8.20;;;;;;5063979;28;20458;-67
2023/05/27 04:59:07;;;;;;;10.23;4.67;;;20.50;6.10;;;;;;5065211;28;20473;-66
2023/05/27 05:01:48;;;;;;;14.30;4.20;;;21.40;4.50;;;;;;5063087;28;20484;-66
2023/05/27 05:04:17;;;;;;;10.73;4.90;;;22.20;2.80;;;;;;5063242;28;21646;-64
2023/05/27 05:06:43;;;;;;;11.43;4.10;;;23.00;1.30;;;;;;5059528;28;20473;-67
2023/05/27 05:09:11;;;;;;;12.30;4.20;;;23.60;1.00;;;;;;5062075;28;20457;-66
2023/05/27 05:11:38;;;;;;;11.90;3.83;;;24.30;1.00;;;;;;5061030;28;21511;-66
2023/05/27 05:14:05;;;;;;;12.70;5.03;;;24.80;1.00;;;;;;5066244;28;20476;-67
2023/05/27 05:16:31;;;;;;;11.17;4.47;;;25.50;1.00;;;;;;5065873;28;20476;-66
2023/05/27 05:18:58;;;;;;;10.50;3.83;;;26.20;1.00;;;;;;5066786;28;20496;-65
2023/05/27 05:21:26;;;;;;;10.97;4.90;;;26.80;1.00;;;;;;5066133;28;20469;-66
2023/05/27 05:23:53;;;;;;;10.40;4.60;;;27.40;1.00;;;;;;5065905;28;20471;-66
2023/05/27 05:26:20;;;;;;;8.77;4.27;;;28.10;1.00;;;;;;5065928;28;20488;-66
2023/05/27 05:28:46;;;;;;;10.37;4.60;;;28.60;1.00;;;;;;5064642;28;20520;-66
2023/05/27 05:31:13;;;;;;;10.17;3.97;;;29.10;1.00;;;;;;5064063;28;20890;-66
2023/05/27 05:33:40;;;;;;;11.63;4.13;;;29.60;1.00;;;;;;5057433;28;20481;-66
2023/05/27 05:36:08;;;;;;;11.97;4.90;;;30.10;1.00;;;;;;5061514;28;20457;-66
2023/05/27 05:38:36;;;;;;;11.00;4.47;;;30.60;1.00;;;;;;5063586;28;20492;-66
2023/05/27 05:41:02;;;;;;;9.33;3.87;;;31.10;1.00;;;;;;5066054;28;20469;-66
2023/05/27 05:43:29;;;;;;;13.50;4.70;;;31.50;1.00;;;;;;5063491;28;20872;-66
2023/05/27 05:45:56;;;;;;;8.67;3.93;;;31.90;1.00;;;;;;5062032;28;20971;-65
2023/05/27 05:48:23;;;;;;;10.03;4.53;;;32.40;1.00;;;;;;5063721;28;20472;-66
2023/05/27 05:50:50;;;;;;;9.33;4.23;;;32.90;1.00;;;;;;5063149;28;20488;-66
2023/05/27 05:53:16;;;;;;;7.50;3.80;;;33.20;1.00;;;;;;5064846;28;20485;-66
2023/05/27 05:55:44;;;;;;;10.30;4.03;;;33.70;1.00;;;;;;5060444;28;20483;-66
2023/05/27 05:58:11;;;;;;;8.80;3.67;;;33.90;1.00;;;;;;5067968;28;20483;-66
2023/05/27 06:00:38;;;;;;;16.13;3.93;;;34.30;1.00;;;;;;5062441;28;20462;-67
2023/05/27 06:03:05;;;;;;;11.97;4.70;;;34.50;1.00;;;;;;5062688;28;21070;-67
2023/05/27 06:05:32;;;;;;;9.67;4.33;;;34.50;1.00;;;;;;5061529;28;20469;-66
2023/05/27 06:07:59;;;;;;;12.50;4.30;;;34.70;1.00;;;;;;5067696;28;20469;-67
2023/05/27 06:10:25;;;;;;;9.70;4.50;;;35.30;1.00;;;;;;5066521;28;20461;-67
2023/05/27 06:12:53;;;;;;;10.47;4.13;;;35.90;1.00;;;;;;5063445;28;20489;-66
2023/05/27 06:15:20;;;;;;;9.83;4.13;;;36.30;1.00;;;;;;5060333;28;20464;-66
2023/05/27 06:17:47;;;;;;;10.67;4.60;;;36.40;1.00;;;;;;5061892;28;20485;-66
2023/05/27 06:20:14;;;;;;;8.23;3.93;;;36.60;1.00;;;;;;5064835;28;21007;-66
2023/05/27 06:22:41;;;;;;;10.40;4.60;;;37.20;1.00;;;;;;5062312;28;21032;-66
2023/05/27 06:25:08;;;;;;;12.13;4.20;;;37.70;1.00;;;;;;5054238;28;20461;-67
2023/05/27 06:27:35;;;;;;;11.13;4.67;;;38.00;1.00;;;;;;5062803;28;20453;-68
2023/05/27 06:30:03;;;;;;;7.57;3.80;;;38.60;1.00;;;;;;5061998;28;20879;-69
2023/05/27 06:32:30;;;;;;;10.23;4.33;;;39.30;1.00;;;;;;5063959;28;20484;-66
2023/05/27 06:34:57;;;;;;;9.50;4.63;;;39.80;1.00;;;;;;5057330;28;20469;-66
2023/05/27 06:37:24;;;;;;;8.40;4.30;;;40.10;1.00;;;;;;5063312;28;20476;-66
2023/05/27 06:39:50;;;;;;;12.47;4.53;;;40.40;1.00;;;;;;5058677;28;20552;-66
2023/05/27 06:42:18;;;;;;;8.97;3.97;;;40.50;1.00;;;;;;5060526;28;20480;-66
2023/05/27 06:44:45;;;;;;;10.17;4.90;;;40.90;1.00;;;;;;5061576;28;20461;-66
2023/05/27 06:47:13;;;;;;;10.07;4.87;;;41.50;1.00;;;;;;5063050;28;20473;-67
2023/05/27 06:49:39;;;;;;;10.90;4.37;;;41.90;1.00;;;;;;5067549;28;20851;-68
2023/05/27 06:52:06;;;;;;;7.33;4.13;;;42.20;1.00;;;;;;5068367;28;20492;-69
2023/05/27 06:54:33;;;;;;;11.20;4.50;;;42.60;1.00;;;;;;5067139;28;20472;-67
2023/05/27 06:57:01;;;;;;;9.07;4.27;;;43.10;1.00;;;;;;5064790;28;20872;-67
2023/05/27 06:59:28;;;;;;;8.43;4.47;;;43.60;1.00;;;;;;5062666;28;20512;-67
2023/05/27 07:01:56;;;;;;;7.60;3.87;;;44.10;1.00;;;;;;5065978;28;20480;-67
2023/05/27 07:04:24;;;;;;;10.27;4.77;;;44.50;1.00;;;;;;5064028;28;20465;-67
2023/05/27 07:06:50;;;;;;;15.50;4.63;;;44.80;1.00;;;;;;5067577;28;20472;-68
2023/05/27 07:09:17;;;;;;;13.23;5.07;;;44.90;1.00;;;;;;5068370;28;20572;-67
2023/05/27 07:11:44;;;;;;;14.23;5.63;;;45.10;1.00;;;;;;5064544;28;20469;-67
2023/05/27 07:14:11;;;;;;;7.70;3.80;;;45.30;1.00;;;;;;5063164;28;20457;-67
2023/05/27 07:16:38;;;;;;;11.40;4.37;;;45.70;1.00;;;;;;5056866;28;20497;-68
2023/05/27 07:19:05;;;;;;;10.43;4.90;;;45.90;1.00;;;;;;5056516;28;20567;-67
2023/05/27 07:21:33;;;;;;;9.57;3.87;;;46.40;1.00;;;;;;5060669;28;20464;-67
2023/05/27 07:24:02;;;;;;;9.50;5.40;;;46.60;1.00;;;;;;5059460;28;20461;-68
2023/05/27 07:26:29;;;;;;;10.60;4.53;;;46.60;1.00;;;;;;5057169;28;20464;-67
2023/05/27 07:28:58;;;;;;;11.47;4.57;;;46.80;1.00;;;;;;5055336;28;20464;-67
2023/05/27 07:31:25;;;;;;;9.93;4.93;;;47.20;1.00;;;;;;5052474;28;20548;-68
2023/05/27 07:33:51;;;;;;;8.57;5.10;;;47.20;1.00;;;;;;5056671;28;20473;-67
2023/05/27 07:36:18;;;;;;;8.00;4.00;;;47.30;1.00;;;;;;5058006;28;20469;-69
2023/05/27 07:38:46;;;;;;;11.03;4.90;;;47.10;1.00;;;;;;5057410;28;21445;-67
2023/05/27 07:41:13;;;;;;;9.00;4.60;;;46.70;1.00;;;;;;5060875;28;20464;-68
2023/05/27 07:43:40;;;;;;;10.47;4.90;;;47.00;1.00;;;;;;5057778;28;20492;-68
2023/05/27 07:46:07;;;;;;;7.87;4.40;;;47.30;1.00;;;;;;5059883;28;20846;-68
2023/05/27 07:48:34;;;;;;;8.43;4.30;;;47.60;1.00;;;;;;5060419;28;20496;-68
2023/05/27 07:51:01;;;;;;;9.53;4.50;;;48.10;1.00;;;;;;5061709;28;20472;-68
2023/05/27 07:53:28;;;;;;;10.87;4.47;;;48.70;1.00;;;;;;5061821;28;21220;-68
2023/05/27 07:55:56;;;;;;;9.17;5.10;;;49.10;1.00;;;;;;5060323;28;20472;-67
2023/05/27 07:58:22;;;;;;;7.37;4.10;;;48.40;1.00;;;;;;5055661;28;20488;-67
2023/05/27 08:00:49;;;;;;;8.30;4.20;;;48.20;1.00;;;;;;5058911;28;20469;-67
2023/05/27 08:03:16;;;;;;;11.70;4.90;;;48.50;1.00;;;;;;5069482;28;20483;-66
2023/05/27 08:05:43;;;;;;;10.43;4.77;;;48.60;1.00;;;;;;5064483;28;20540;-65
2023/05/27 08:08:10;;;;;;;7.53;4.40;;;49.00;1.00;;;;;;5067830;28;20457;-66
2023/05/27 08:10:36;;;;;;;8.60;4.00;;;49.40;1.00;;;;;;5063922;28;20464;-68
2023/05/27 08:13:04;;;;;;;9.67;4.70;;;49.30;1.00;;;;;;5061350;28;20501;-67
2023/05/27 08:15:31;;;;;;;9.33;4.33;;;49.30;1.00;;;;;;5066283;28;20469;-67
2023/05/27 08:17:59;;;;;;;8.93;4.60;;;49.80;1.00;;;;;;5063092;28;20484;-69
2023/05/27 08:20:26;;;;;;;8.70;4.83;;;49.80;1.00;;;;;;5065756;28;20457;-67
2023/05/27 08:22:53;;;;;;;9.97;5.00;;;49.10;1.00;;;;;;5062787;28;20516;-68
2023/05/27 08:25:20;;;;;;;8.70;4.90;;;49.00;1.00;;;;;;5060716;28;20461;-67
2023/05/27 08:27:51;;;;;;;9.43;4.40;;;48.50;1.00;;;;;;5064129;28;20805;-67
2023/05/27 08:30:19;;;;;;;10.73;5.43;;;47.90;1.00;;;;;;5060120;28;20528;-66
2023/05/27 08:32:46;;;;;;;9.00;4.87;;;48.00;1.00;;;;;;5063431;28;20485;-66
2023/05/27 08:35:13;;;;;;;8.30;5.03;;;48.70;1.00;;;;;;5058134;28;20595;-66
2023/05/27 08:37:41;;;;;;;9.80;4.90;;;48.70;1.00;;;;;;5066064;28;20465;-67
2023/05/27 08:40:10;;;;;;;10.63;5.70;;;47.90;1.00;;;;;;5064088;28;20493;-67
2023/05/27 08:42:37;;;;;;;8.77;4.37;;;48.20;1.00;;;;;;5067236;28;20512;-67
2023/05/27 08:45:05;;;;;;;7.90;4.20;;;49.00;1.00;;;;;;5062245;28;20465;-67
2023/05/27 08:47:33;;;;;;;9.57;5.20;;;49.60;1.00;;;;;;5065819;28;20457;-67
2023/05/27 08:50:00;;;;;;;11.50;6.07;;;49.60;1.00;;;;;;5063513;28;20461;-67
2023/05/27 08:52:29;;;;;;;9.40;4.67;;;49.80;1.00;;;;;;5065041;28;20477;-67
2023/05/27 08:54:57;;;;;;;8.60;4.63;;;49.10;1.00;;;;;;5060473;28;20472;-67
2023/05/27 08:57:28;;;;;;;10.03;4.83;;;49.00;1.00;;;;;;5066019;28;20453;-66
2023/05/27 08:59:55;;;;;;;8.10;4.37;;;49.50;1.00;;;;;;5065125;28;20477;-67
2023/05/27 09:02:23;;;;;;;14.93;5.70;;;49.90;1.00;;;;;;5063838;28;20477;-69
2023/05/27 09:04:51;;;;;;;10.53;5.23;;;50.20;1.00;;;;;;5062366;28;20993;-67
2023/05/27 09:07:20;;;;;;;11.47;5.43;;;50.70;1.00;;;;;;5065098;28;20957;-69
2023/05/27 09:09:56;;;;;;;11.00;5.40;;;50.80;1.00;;;;;;5068408;28;20492;-67
2023/05/27 09:12:24;;;;;;;12.47;5.17;;;50.80;1.00;;;;;;5058402;28;20534;-67
2023/05/27 09:14:51;;;;;;;8.20;4.33;;;51.10;1.00;;;;;;5062174;28;20498;-66
2023/05/27 09:17:18;;;;;;;7.47;4.40;;;50.90;1.00;;;;;;5063432;28;20994;-67
2023/05/27 09:19:45;;;;;;;8.47;4.77;;;51.00;1.00;;;;;;5061472;28;20485;-67
2023/05/27 09:22:21;;;;;;;9.33;5.00;;;50.90;1.00;;;;;;5060339;28;20516;-66
2023/05/27 09:24:47;;;;;;;11.37;5.43;;;50.50;1.00;;;;;;5066368;28;20518;-67
2023/05/27 09:27:14;;;;;;;14.00;5.13;;;49.50;1.00;;;;;;5066299;28;20484;-67
2023/05/27 09:29:41;;;;;;;8.90;4.60;;;49.10;1.00;;;;;;5063157;28;20480;-66
2023/05/27 09:32:08;;;;;;;10.13;5.30;;;48.80;1.00;;;;;;5062021;28;20482;-66
2023/05/27 09:34:38;;;;;;;9.43;4.80;;;47.60;1.00;;;;;;5063226;28;20468;-66
2023/05/27 09:37:05;;;;;;;9.77;5.53;;;45.50;1.00;;;;;;5063496;28;20466;-66
2023/05/27 09:39:34;;;;;;;11.27;5.10;;;43.50;1.00;;;;;;5068950;28;20483;-66
2023/05/27 09:42:01;;;;;;;11.03;5.30;;;41.80;1.00;;;;;;5063238;28;21016;-65
2023/05/27 09:44:29;;;;;;;9.50;5.57;;;40.20;1.00;;;;;;5066367;28;20465;-66
2023/05/27 09:46:58;;;;;;;9.13;5.00;;;38.40;1.00;;;;;;5067736;28;20457;-66
2023/05/27 09:49:28;;;;;;;15.07;5.57;;;37.00;1.00;;;;;;5064343;28;20799;-66
2023/05/27 09:51:57;;;;;;;13.83;6.07;;;35.70;1.00;;;;;;5059234;28;20483;-65
2023/05/27 09:54:24;;;;;;;9.60;5.70;;;34.70;1.00;;;;;;5062368;28;20833;-65
2023/05/27 09:56:53;;;;;;;15.00;6.37;;;33.70;1.00;;;;;;5064424;28;20823;-65
2023/05/27 09:59:20;;;;;;;10.57;5.37;;;32.80;1.00;;;;;;5096460;22;20859;-67
2023/05/27 10:01:47;;;;;;;9.67;5.43;;;31.80;1.00;;;;;;5082045;28;20483;-65
2023/05/27 10:04:16;;;;;;;13.33;6.17;;;31.10;1.00;;;;;;5079850;28;20919;-65
2023/05/27 10:06:45;;;;;;;11.90;5.67;;;30.60;1.00;;;;;;5080739;28;20495;-66
2023/05/27 10:09:13;;;;;;;10.60;5.47;;;30.00;1.00;;;;;;5084267;28;20453;-65
2023/05/27 10:11:41;;;;;;;13.40;6.83;;;29.60;1.00;;;;;;5083941;28;20456;-65
2023/05/27 10:14:10;;;;;;;13.60;5.73;;;29.30;1.00;;;;;;5086148;28;20936;-66
2023/05/27 10:16:37;;;;;;;12.83;6.07;;;28.90;1.00;;;;;;5081221;28;20460;-65
2023/05/27 10:19:10;;;;;;;13.33;5.90;;;28.70;1.00;;;;;;5082080;28;20471;-66
2023/05/27 10:21:43;;;;;;;14.63;5.50;;;28.40;1.00;;;;;;5080284;28;20485;-67
2023/05/27 10:24:12;;;;;;;10.00;5.30;;;28.00;1.00;;;;;;5085542;28;20467;-69
2023/05/27 10:26:41;;;;;;;12.10;6.00;;;27.70;1.00;;;;;;5097601;28;20468;-68
2023/05/27 10:29:11;;;;;;;8.07;4.60;;;27.50;1.00;;;;;;5082885;28;20480;-67
2023/05/27 10:31:45;;;;;;;10.70;5.10;;;27.40;1.00;;;;;;5085893;28;20877;-65
2023/05/27 10:34:12;;;;;;;11.53;6.40;;;27.20;1.00;;;;;;5084216;28;21265;-70
2023/05/27 10:36:39;;;;;;;13.87;6.50;;;26.90;1.00;;;;;;5083456;28;20460;-69
2023/05/27 10:39:13;;;;;;;13.93;6.53;;;26.70;1.00;;;;;;5088991;28;20467;-70
2023/05/27 10:41:41;;;;;;;9.60;5.53;;;26.50;1.00;;;;;;5082363;28;20466;-68
2023/05/27 10:44:09;;;;;;;13.87;5.77;;;26.30;1.00;;;;;;5085256;28;20545;-69
2023/05/27 10:46:41;;;;;;;12.33;5.70;;;26.10;1.00;;;;;;5086240;28;20511;-67
2023/05/27 10:49:15;;;;;;;13.13;6.10;;;25.90;1.00;;;;;;5086716;28;20510;-67
2023/05/27 10:51:43;;;;;;;9.90;5.03;;;25.90;1.00;;;;;;5082033;28;20498;-68
2023/05/27 10:54:10;;;;;;;12.53;5.77;;;25.90;1.00;;;;;;5087571;28;20460;-69
2023/05/27 10:56:37;;;;;;;10.13;5.20;;;25.80;1.00;;;;;;5085368;28;20465;-67
2023/05/27 10:59:05;;;;;;;9.90;5.30;;;25.70;1.00;;;;;;5085854;28;21095;-69
2023/05/27 11:01:34;;;;;;;17.63;6.00;;;25.70;1.00;;;;;;5083703;28;20480;-70
2023/05/27 11:04:01;;;;;;;12.80;6.33;;;25.60;1.00;;;;;;5085836;28;20460;-71
2023/05/27 11:06:29;;;;;;;11.53;5.80;;;25.50;1.00;;;;;;5086223;28;20459;-70
2023/05/27 11:08:55;;;;;;;12.70;6.60;;;25.40;1.00;;;;;;5086716;28;20463;-68
2023/05/27 11:11:22;;;;;;;12.60;4.83;;;25.40;1.00;;;;;;5079582;28;20468;-70
2023/05/27 11:13:49;;;;;;;12.40;5.40;;;25.30;1.00;;;;;;5080873;28;20483;-70
2023/05/27 11:16:16;;;;;;;12.90;6.57;;;25.20;1.00;;;;;;5081493;28;20463;-67
2023/05/27 11:18:47;;;;;;;10.27;5.10;;;24.90;1.00;;;;;;5084863;28;20466;-67
2023/05/27 11:21:15;;;;;;;11.73;6.00;;;24.80;1.00;;;;;;5080228;28;20468;-67
2023/05/27 11:23:45;;;;;;;13.13;6.30;;;24.80;1.00;;;;;;5081586;28;20475;-67
2023/05/27 11:26:16;;;;;;;10.63;5.53;;;24.70;1.00;;;;;;5090145;28;20926;-68
2023/05/27 11:28:47;;;;;;;11.80;5.43;;;24.70;1.00;;;;;;5086226;28;21536;-66
2023/05/27 11:31:14;;;;;;;10.13;5.07;;;24.70;1.00;;;;;;5084811;28;20545;-66
2023/05/27 11:33:43;;;;;;;9.90;5.20;;;24.70;1.00;;;;;;5081239;28;20568;-67
2023/05/27 11:36:14;;;;;;;11.73;5.70;;;24.70;1.00;;;;;;5090917;28;20471;-66
2023/05/27 11:38:51;;;;;;;10.23;5.80;;;24.60;1.00;;;;;;5086220;28;20491;-67
2023/05/27 11:41:18;;;;;;;13.20;5.63;;;24.60;1.00;;;;;;5084238;28;21038;-66
2023/05/27 11:43:49;;;;;;;11.00;5.63;;;24.50;1.00;;;;;;5083144;28;20488;-66
2023/05/27 11:46:16;;;;;;;11.70;6.07;;;24.40;1.00;;;;;;5084210;28;20804;-67
2023/05/27 11:48:43;;;;;;;10.10;6.07;;;24.30;1.00;;;;;;5084707;28;20496;-66
2023/05/27 11:51:12;;;;;;;10.47;4.97;;;24.10;1.00;;;;;;5082551;28;20659;-66
2023/05/27 11:53:41;;;;;;;12.70;4.87;;;24.10;1.00;;;;;;5085178;28;20516;-66
2023/05/27 11:56:08;;;;;;;8.60;5.30;;;24.10;1.00;;;;;;5087826;28;20850;-66
2023/05/27 11:58:36;;;;;;;10.33;5.37;;;24.10;1.00;;;;;;5085607;28;20832;-66
2023/05/27 12:01:03;;;;;;;13.60;5.90;;;24.10;1.00;;;;;;5083332;28;20480;-66
2023/05/27 12:03:31;;;;;;;14.13;5.77;;;24.10;1.00;;;;;;5086333;28;20829;-66
2023/05/27 12:05:57;;;;;;;12.03;5.73;;;24.00;1.00;;;;;;5083397;28;20469;-66
2023/05/27 12:08:25;;;;;;;12.27;5.40;;;23.90;1.00;;;;;;5087499;28;20464;-65
2023/05/27 12:10:53;;;;;;;9.60;4.60;;;23.90;1.00;;;;;;5087362;28;20456;-66
2023/05/27 12:13:20;;;;;;;17.73;6.13;;;23.90;1.00;;;;;;5086845;28;20722;-65
2023/05/27 12:15:47;;;;;;;9.17;5.30;;;23.90;1.00;;;;;;5083171;28;20513;-65
2023/05/27 12:18:14;;;;;;;12.33;5.87;;;23.90;1.00;;;;;;5087078;28;22386;-65
2023/05/27 12:20:41;;;;;;;15.73;5.73;;;23.90;1.00;;;;;;5083273;28;20506;-69
2023/05/27 12:23:08;;;;;;;9.97;4.60;;;23.90;1.00;;;;;;5080272;28;20481;-65
2023/05/27 12:25:36;;;;;;;11.00;5.60;;;23.80;1.00;;;;;;5087150;28;20483;-65
2023/05/27 12:28:02;;;;;;;11.13;5.53;;;23.80;1.00;;;;;;5085251;28;20975;-66
2023/05/27 12:30:29;;;;;;;12.67;5.47;;;23.70;1.00;;;;;;5080369;28;20468;-65
2023/05/27 12:32:56;;;;;;;12.43;5.53;;;23.70;1.00;;;;;;5085686;28;20503;-65
2023/05/27 12:35:23;;;;;;;11.47;6.30;;;23.70;1.00;;;;;;5083781;28;20461;-65
2023/05/27 12:37:49;;;;;;;10.33;5.47;;;23.70;1.00;;;;;;5087645;28;20483;-66
2023/05/27 12:40:16;;;;;;;12.47;4.90;;;23.70;1.00;;;;;;5086343;28;20483;-65
2023/05/27 12:42:45;;;;;;;11.23;5.57;;;23.70;1.00;;;;;;5086035;28;20484;-65
2023/05/27 12:45:12;;;;;;;12.00;5.20;;;23.70;1.00;;;;;;5081077;28;20471;-65
2023/05/27 12:47:39;;;;;;;14.90;5.97;;;23.70;1.00;;;;;;5083594;28;20894;-65